Time;durP1;ratioP1;P1;durP2;ratioP2;P2;SDS_P1;SDS_P2;PMS_P1;PMS_P2;Temp;Humidity;BMP_temperature;BMP_pressure;BME280_temperature;BME280_humidity;BME280_pressure;Samples;Min_cycle;Max_cycle;Signal;HPM_P1;HPM_P2
2021/07/12 04:23:11;;;;;;;9.10;5.07;;;;;;;22.23;64.33;100236.69;5301814;26;20053;-90
2021/07/12 04:25:58;;;;;;;6.90;4.57;;;;;;;22.25;64.03;100236.63;5324006;27;20061;-89
2021/07/12 04:28:25;;;;;;;5.87;4.75;;;;;;;22.03;65.24;100235.12;5324082;27;20063;-86
2021/07/12 04:30:52;;;;;;;6.93;5.62;;;;;;;21.54;66.99;100229.78;5304082;27;20136;-89
2021/07/12 04:33:19;;;;;;;7.57;4.62;;;;;;;21.81;66.41;100229.22;5305881;27;20075;-89
2021/07/12 04:35:46;;;;;;;8.02;5.40;;;;;;;22.16;65.22;100238.81;5307255;27;20088;-89
2021/07/12 04:38:14;;;;;;;6.18;5.28;;;;;;;21.88;66.07;100225.25;5327908;27;20091;-89
2021/07/12 04:40:42;;;;;;;7.85;5.43;;;;;;;22.01;65.87;100231.66;5309233;27;20112;-89
2021/07/12 04:43:09;;;;;;;10.15;5.60;;;;;;;22.08;65.72;100232.19;5307973;27;20734;-89
2021/07/12 04:45:37;;;;;;;7.82;6.20;;;;;;;22.14;65.57;100231.81;5308638;27;20077;-89
2021/07/12 04:48:07;;;;;;;8.93;5.78;;;;;;;22.25;65.20;100231.25;5308482;27;20055;-90
2021/07/12 04:50:34;;;;;;;;;;;;;;;22.09;65.75;100241.91;5308275;27;20097;-89
2021/07/12 04:53:01;;;;;;;7.85;5.05;;;;;;;22.18;65.30;100242.31;5306476;27;19993;-89
2021/07/12 04:55:28;;;;;;;8.75;5.47;;;;;;;21.53;67.64;100241.41;5305207;27;20057;-89
2021/07/12 04:57:55;;;;;;;7.40;4.82;;;;;;;22.23;65.45;100240.22;5324001;27;20107;-89
2021/07/12 05:25:06;;;;;;;8.98;5.30;;;;;;;23.13;62.65;100246.66;5322374;27;20060;-87
2021/07/12 05:27:33;;;;;;;7.35;5.05;;;;;;;23.16;62.45;100243.78;5323122;27;20098;-88
2021/07/12 06:29:17;;;;;;;5.20;4.53;;;;;;;24.73;58.14;100291.13;5328185;26;20040;-89
2021/07/12 06:31:55;;;;;;;6.57;4.72;;;;;;;24.90;58.04;100285.47;5311460;27;20125;-89
2021/07/12 06:34:25;;;;;;;6.32;4.95;;;;;;;25.07;58.38;100278.13;5309410;27;20057;-89
2021/07/12 08:47:31;;;;;;;4.53;2.85;;;;;;;35.86;31.09;100218.66;5310181;26;20935;-88
2021/07/12 08:49:59;;;;;;;4.35;2.97;;;;;;;35.40;30.83;100205.63;5314492;27;20048;-87
2021/07/12 13:53:18;;;;;;;8.75;4.80;;;;;;;37.36;26.86;99986.28;5300167;26;21165;31
2021/07/12 13:55:50;;;;;;;5.30;4.60;;;;;;;37.12;28.76;99993.78;5298531;27;20042;-90
2021/07/12 14:32:45;;;;;;;10.20;5.50;;;;;;;36.69;28.64;99951.72;5284452;27;20123;-90
2021/07/12 14:35:23;;;;;;;5.87;5.28;;;;;;;36.98;28.27;99957.16;5325671;27;20061;-90
2021/07/12 14:37:52;;;;;;;7.72;5.30;;;;;;;37.37;27.93;99947.75;5327205;27;20033;-91
2021/07/12 14:40:25;;;;;;;7.43;5.25;;;;;;;37.93;25.95;99944.31;5303719;27;20421;-90
2021/07/12 14:43:03;;;;;;;6.78;5.30;;;;;;;38.37;25.07;99948.69;5321488;27;20434;-90
2021/07/12 14:45:50;;;;;;;;;;;;;;;;;;;;;
2021/07/12 14:48:39;;;;;;;6.93;5.03;;;;;;;39.03;24.89;99938.13;5319022;27;20064;-92
2021/07/12 14:54:10;;;;;;;6.30;5.43;;;;;;;39.28;24.51;99927.41;5315011;27;20069;-93
2021/07/12 15:00:41;;;;;;;6.40;5.78;;;;;;;39.25;24.24;99927.81;5273423;27;20086;-90
2021/07/12 15:03:09;;;;;;;6.25;5.57;;;;;;;39.70;23.67;99930.03;5298984;27;20065;-92
2021/07/12 15:05:41;;;;;;;5.50;5.00;;;;;;;39.64;24.07;99923.47;5299567;27;20057;-89
2021/07/12 15:08:55;;;;;;;6.15;5.55;;;;;;;39.37;24.22;99919.00;5299435;27;20045;-90
2021/07/12 15:12:20;;;;;;;7.45;5.32;;;;;;;39.80;23.46;99916.75;5318791;27;20453;-89
2021/07/12 15:18:59;;;;;;;6.82;6.12;;;;;;;39.25;23.98;99905.84;5164901;27;20058;-92
2021/07/12 15:21:34;;;;;;;8.88;5.57;;;;;;;38.56;24.92;99912.31;5170359;27;20106;-91
2021/07/12 15:37:29;;;;;;;5.45;4.90;;;;;;;38.36;25.35;99903.09;5236209;27;20113;-91
2021/07/12 15:44:11;;;;;;;11.10;7.72;;;;;;;38.32;26.08;99890.81;5329218;27;20067;-92
2021/07/12 15:47:47;;;;;;;7.82;5.82;;;;;;;38.39;25.87;99888.97;5322749;27;20060;-91
2021/07/12 15:51:18;;;;;;;11.85;6.03;;;;;;;38.09;26.12;99878.22;5248564;27;20141;-90
2021/07/12 15:54:32;;;;;;;;;;;;;;;;;;;;;
2021/07/12 15:58:04;;;;;;;;;;;;;;;;;;;;;
2021/07/12 16:14:44;;;;;;;11.35;8.05;;;;;;;37.19;27.79;99868.75;5154462;27;20114;-91
2021/07/12 16:18:18;;;;;;;7.87;6.40;;;;;;;37.06;28.68;99863.09;5174224;27;21240;-91
2021/07/12 16:42:31;;;;;;;5.97;5.20;;;;;;;36.18;29.86;99862.16;5179505;27;20055;-92
2021/07/12 16:45:45;;;;;;;11.40;9.15;;;;;;;36.06;29.34;99856.31;5245857;27;20061;-92
2021/07/12 16:48:53;;;;;;;7.25;6.43;;;;;;;36.18;30.09;99856.69;5276275;27;20047;-92
2021/07/12 16:51:53;;;;;;;6.18;5.57;;;;;;;36.18;29.85;99859.44;5275380;27;20022;-91
2021/07/12 16:54:59;;;;;;;8.60;6.43;;;;;;;35.93;29.61;99859.66;5270852;27;20029;-91
2021/07/12 16:57:52;;;;;;;;;;;;;;;35.84;29.89;99855.31;5269562;27;20803;-91
2021/07/12 17:00:37;;;;;;;8.27;6.65;;;;;;;35.81;30.49;99850.22;5289413;27;19999;-92
2021/07/12 17:03:21;;;;;;;6.93;6.18;;;;;;;35.74;30.24;99854.72;5281543;27;20123;-91
2021/07/12 17:05:51;;;;;;;8.82;5.78;;;;;;;35.39;30.64;99840.66;5304721;27;20048;-92
2021/07/12 17:08:19;;;;;;;8.30;5.70;;;;;;;35.47;30.83;99845.19;5305604;27;20032;-91
2021/07/12 17:10:49;;;;;;;9.98;7.35;;;;;;;35.52;30.95;99841.91;5304426;27;20129;-92
2021/07/12 17:13:19;;;;;;;10.73;9.65;;;;;;;35.47;31.78;99837.88;5304307;27;20111;-92
2021/07/12 17:15:49;;;;;;;12.80;9.63;;;;;;;35.43;31.31;99838.41;5302525;27;20044;-90
2021/07/12 17:18:16;;;;;;;7.87;6.60;;;;;;;35.44;32.40;99835.47;5301726;27;20131;-91
2021/07/12 17:20:44;;;;;;;11.60;6.72;;;;;;;35.26;32.33;99829.47;5302200;27;20057;-90
2021/07/12 17:23:12;;;;;;;9.18;6.22;;;;;;;35.20;32.16;99822.88;5322237;27;20049;-92
2021/07/12 17:25:40;;;;;;;8.00;5.90;;;;;;;35.11;32.47;99831.31;5303256;27;20095;-91
2021/07/12 17:28:07;;;;;;;9.52;6.95;;;;;;;35.06;32.02;99817.34;5310081;27;20056;-91
2021/07/12 17:30:37;;;;;;;6.50;5.80;;;;;;;34.93;32.97;99826.97;5311028;27;20066;-90
2021/07/12 17:33:06;;;;;;;8.40;6.07;;;;;;;34.95;32.45;99830.38;5305371;27;20061;-91
2021/07/12 17:35:33;;;;;;;8.80;6.57;;;;;;;34.78;33.37;99832.34;5304077;27;20065;-92
2021/07/12 17:38:19;;;;;;;10.38;8.80;;;;;;;34.83;32.87;99826.34;5331101;27;20029;-92
2021/07/12 17:40:48;;;;;;;8.68;7.05;;;;;;;34.81;33.26;99834.72;5328815;27;20033;-90
2021/07/12 17:43:16;;;;;;;9.05;6.43;;;;;;;34.76;33.02;99837.12;5329316;27;20061;-92
2021/07/12 17:45:44;;;;;;;12.27;6.80;;;;;;;34.65;33.14;99836.66;5327019;27;20024;-92
2021/07/12 17:48:11;;;;;;;8.40;5.70;;;;;;;34.67;33.08;99832.72;5306703;27;20061;-91
2021/07/12 17:50:43;;;;;;;8.40;7.15;;;;;;;34.59;33.61;99839.09;5329363;27;20053;-91
2021/07/12 17:53:10;;;;;;;9.93;6.82;;;;;;;34.46;34.58;99838.78;5330231;27;20060;-91
2021/07/12 17:55:41;;;;;;;8.75;6.50;;;;;;;34.49;34.68;99843.88;5311237;27;20068;-92
2021/07/12 17:58:11;;;;;;;11.10;7.20;;;;;;;34.35;34.91;99842.72;5308372;27;20730;-91
2021/07/12 18:00:45;;;;;;;9.75;6.60;;;;;;;34.31;34.79;99843.28;5311183;27;20053;-92
2021/07/12 18:03:45;;;;;;;7.82;6.47;;;;;;;34.13;34.97;99851.69;5300687;27;20063;-91
2021/07/12 18:06:12;;;;;;;45.95;10.98;;;;;;;33.91;35.56;99855.94;5309954;27;20073;-92
2021/07/12 18:08:43;;;;;;;34.35;8.32;;;;;;;33.79;36.10;99854.59;5325692;27;20493;-92
2021/07/12 18:11:21;;;;;;;30.00;7.97;;;;;;;33.69;36.28;99852.91;5306810;27;20068;-92
2021/07/12 18:13:50;;;;;;;21.10;8.63;;;;;;;33.58;37.12;99855.13;5303685;27;20065;-92
2021/07/12 18:16:19;;;;;;;14.48;7.80;;;;;;;33.58;37.13;99858.69;5302823;27;20119;-91
2021/07/12 18:18:49;;;;;;;9.18;7.28;;;;;;;33.55;37.34;99859.03;5303103;27;20061;-91
2021/07/12 18:21:18;;;;;;;11.30;7.07;;;;;;;33.46;38.04;99849.16;5319748;27;20079;-91
2021/07/12 18:23:46;;;;;;;12.88;7.10;;;;;;;33.36;37.90;99852.03;5301036;27;20061;-90
2021/07/12 18:26:14;;;;;;;12.05;7.15;;;;;;;33.26;37.90;99856.78;5300332;27;20091;-90
2021/07/12 18:28:41;;;;;;;20.98;8.68;;;;;;;33.27;37.81;99853.06;5320287;27;20111;-91
2021/07/12 18:31:09;;;;;;;12.98;8.77;;;;;;;33.14;38.16;99853.53;5299833;27;20118;-91
2021/07/12 18:33:36;;;;;;;14.10;8.68;;;;;;;32.91;38.79;99858.72;5300215;27;20060;-91
2021/07/12 18:36:05;;;;;;;10.75;6.32;;;;;;;32.66;39.57;99865.13;5320065;27;20063;-91
2021/07/12 18:38:34;;;;;;;14.10;6.57;;;;;;;32.56;38.51;99863.41;5301024;27;20132;-92
2021/07/12 18:41:01;;;;;;;16.35;8.40;;;;;;;32.44;39.08;99861.94;5300024;27;20065;-91
2021/07/12 18:43:29;;;;;;;10.43;7.40;;;;;;;32.38;40.06;99861.75;5299804;27;20110;-91
2021/07/12 18:45:56;;;;;;;12.60;8.63;;;;;;;32.34;39.42;99877.53;5299771;27;20096;-92
2021/07/12 18:48:23;;;;;;;10.48;7.57;;;;;;;32.28;39.59;99870.87;5299952;27;20542;-92
2021/07/12 18:50:53;;;;;;;19.12;8.68;;;;;;;32.23;39.37;99870.50;5299679;27;20110;-92
2021/07/12 18:53:21;;;;;;;16.60;8.85;;;;;;;32.07;39.91;99878.56;5300220;27;20062;-91
2021/07/12 18:55:48;;;;;;;28.08;9.00;;;;;;;31.84;41.12;99870.91;5301077;27;20048;-92
2021/07/12 18:58:19;;;;;;;30.15;10.77;;;;;;;31.85;41.01;99869.88;5302075;27;20069;-90
2021/07/12 19:00:50;;;;;;;11.45;9.00;;;;;;;31.85;41.20;99871.75;5305862;27;20080;-92
2021/07/12 19:03:18;;;;;;;12.23;9.30;;;;;;;31.52;42.33;99870.66;5305660;27;20062;-91
2021/07/12 19:05:45;;;;;;;14.48;8.77;;;;;;;31.15;43.15;99875.22;5305037;27;20083;-91
2021/07/12 19:08:14;;;;;;;10.35;8.48;;;;;;;30.87;43.75;99876.25;5304900;27;20080;-92
2021/07/12 19:10:42;;;;;;;11.98;9.27;;;;;;;30.62;44.40;99872.34;5303986;27;20077;-92
2021/07/12 19:13:09;;;;;;;15.20;7.93;;;;;;;30.45;44.67;99874.03;5302584;27;20079;-91
2021/07/12 19:15:37;;;;;;;52.40;12.27;;;;;;;30.29;43.89;99880.06;5304218;27;20103;-92
2021/07/12 19:18:24;;;;;;;18.95;7.75;;;;;;;30.24;43.72;99885.09;5324137;27;20222;-92
2021/07/12 19:21:00;;;;;;;27.20;9.05;;;;;;;30.30;43.22;99879.94;5306515;27;20052;-91
2021/07/12 19:23:28;;;;;;;20.88;10.50;;;;;;;30.27;43.28;99876.66;5320737;27;20057;-91
2021/07/12 19:25:58;;;;;;;16.83;9.38;;;;;;;30.23;44.89;99877.94;5319465;27;20108;-91
2021/07/12 19:28:26;;;;;;;10.82;8.65;;;;;;;30.29;45.01;99880.06;5300808;27;20029;-91
2021/07/12 19:30:57;;;;;;;12.27;8.32;;;;;;;29.97;45.59;99875.84;5301051;27;20064;-92
2021/07/12 19:33:25;;;;;;;12.88;7.97;;;;;;;29.77;45.42;99875.06;5320248;27;20076;-91
2021/07/12 19:35:53;;;;;;;12.20;8.07;;;;;;;29.60;44.77;99882.00;5319911;27;20056;-91
2021/07/12 19:38:24;;;;;;;11.90;7.97;;;;;;;29.67;44.07;99876.06;5320051;27;20132;-90
2021/07/12 19:40:52;;;;;;;9.63;7.72;;;;;;;29.64;44.24;99875.34;5300360;27;20075;-91
2021/07/12 19:43:20;;;;;;;10.45;8.77;;;;;;;29.63;44.77;99870.06;5300561;27;20113;-91
2021/07/12 19:45:48;;;;;;;12.80;8.15;;;;;;;29.60;45.21;99873.88;5299930;27;20533;-91
2021/07/12 19:48:15;;;;;;;18.40;8.38;;;;;;;29.71;45.44;99867.50;5300172;27;20060;-90
2021/07/12 19:50:43;;;;;;;10.98;8.00;;;;;;;29.56;46.01;99864.37;5320001;27;20319;-91
2021/07/12 19:53:10;;;;;;;11.65;7.97;;;;;;;29.54;45.84;99860.09;5300268;27;20071;-91
2021/07/12 19:55:37;;;;;;;11.75;8.98;;;;;;;29.33;45.82;99865.66;5300232;27;20186;-89
2021/07/12 19:58:04;;;;;;;12.80;8.23;;;;;;;29.37;45.49;99867.06;5318326;27;20124;-91
2021/07/12 20:00:34;;;;;;;12.48;8.63;;;;;;;29.42;45.49;99868.34;5318524;27;20060;-90
2021/07/12 20:03:06;;;;;;;12.37;9.50;;;;;;;29.45;46.01;99872.63;5320033;27;20099;-90
2021/07/12 20:05:37;;;;;;;12.63;9.38;;;;;;;29.24;47.06;99859.25;5300361;27;20049;-91
2021/07/12 20:08:05;;;;;;;14.57;9.65;;;;;;;29.13;47.37;99853.97;5299925;27;20068;-89
2021/07/12 20:10:33;;;;;;;12.23;9.23;;;;;;;28.99;47.23;99857.88;5299999;27;20064;-90
2021/07/12 20:13:01;;;;;;;14.77;8.68;;;;;;;28.71;46.85;99855.00;5319949;27;20119;-90
2021/07/12 20:15:29;;;;;;;12.10;9.50;;;;;;;28.51;47.33;99859.50;5319767;27;20101;-90
2021/07/12 20:17:57;;;;;;;13.70;8.82;;;;;;;28.64;47.19;99852.97;5299963;27;20118;-90
2021/07/12 20:20:26;;;;;;;9.95;8.95;;;;;;;28.66;48.00;99854.56;5319756;27;20068;-90
2021/07/12 20:22:54;;;;;;;;;;;;;;;28.58;48.33;99859.78;5300082;27;20061;-90
2021/07/12 20:25:22;;;;;;;8.73;7.65;;;;;;;28.68;46.80;99851.72;5320281;27;19964;-90
2021/07/12 20:27:50;;;;;;;11.93;8.30;;;;;;;28.27;47.93;99859.78;5319769;27;20087;-90
2021/07/12 20:30:18;;;;;;;13.52;8.60;;;;;;;28.27;47.85;99865.19;5300206;27;20069;-90
2021/07/12 20:32:47;;;;;;;14.37;8.80;;;;;;;28.21;48.37;99865.75;5299902;27;20743;-90
2021/07/12 20:35:17;;;;;;;10.03;7.97;;;;;;;28.35;47.45;99856.41;5320113;27;20110;-90
2021/07/12 20:37:44;;;;;;;14.40;9.50;;;;;;;28.38;47.44;99858.81;5319765;27;20410;-89
2021/07/12 20:40:14;;;;;;;10.00;8.73;;;;;;;28.50;47.08;99854.22;5320110;27;20106;-89
2021/07/12 20:42:42;;;;;;;11.57;7.95;;;;;;;28.56;47.52;99864.50;5300073;27;20064;-90
2021/07/12 20:45:12;;;;;;;9.93;7.95;;;;;;;28.45;47.90;99860.03;5319539;27;20071;-90
2021/07/12 20:47:40;;;;;;;12.73;8.35;;;;;;;28.59;47.68;99857.94;5319604;27;20075;-89
2021/07/12 20:50:11;;;;;;;11.80;8.57;;;;;;;28.54;48.21;99866.47;5319976;27;20061;-89
2021/07/12 20:52:39;;;;;;;16.62;9.43;;;;;;;28.38;48.47;99872.34;5319585;27;20148;-89
2021/07/12 20:55:08;;;;;;;9.77;8.77;;;;;;;28.03;49.18;99870.03;5300089;27;20089;-89
2021/07/12 20:57:36;;;;;;;11.82;9.10;;;;;;;27.70;49.75;99863.84;5299890;27;20057;-89
2021/07/12 21:00:11;;;;;;;12.00;8.35;;;;;;;27.46;50.02;99861.38;5299988;27;20461;-89
2021/07/12 21:02:39;;;;;;;11.15;8.45;;;;;;;27.55;50.72;99862.44;5320156;27;20060;-89
2021/07/12 21:05:07;;;;;;;12.00;9.20;;;;;;;27.49;50.90;99866.53;5318575;27;20163;-89
2021/07/12 21:07:34;;;;;;;9.07;7.90;;;;;;;27.49;50.76;99869.22;5318336;27;20057;-89
2021/07/12 21:10:15;;;;;;;9.00;7.62;;;;;;;27.17;50.55;99869.22;5320043;27;20060;-89
2021/07/12 21:12:42;;;;;;;10.50;8.43;;;;;;;27.58;49.49;99871.13;5319693;27;20069;-89
2021/07/12 21:15:10;;;;;;;9.73;8.20;;;;;;;27.52;49.97;99868.97;5300016;27;20051;-89
2021/07/12 21:17:37;;;;;;;10.38;8.20;;;;;;;27.47;49.57;99859.53;5299793;27;20057;-90
2021/07/12 21:20:05;;;;;;;12.50;9.05;;;;;;;27.46;49.51;99866.78;5320251;27;20389;-90
2021/07/12 21:22:32;;;;;;;9.77;7.87;;;;;;;27.22;50.92;99867.00;5299945;27;20472;-90
2021/07/12 21:24:59;;;;;;;10.82;8.98;;;;;;;27.58;49.89;99868.44;5319885;27;20056;-90
2021/07/12 21:27:26;;;;;;;12.63;10.35;;;;;;;27.44;50.19;99867.91;5320081;27;20072;-89
2021/07/12 21:29:55;;;;;;;10.38;7.60;;;;;;;27.27;50.28;99880.13;5319842;27;20064;-89
2021/07/12 21:32:22;;;;;;;10.00;7.62;;;;;;;27.10;49.93;99874.25;5319794;27;20067;-89
2021/07/12 21:34:49;;;;;;;9.65;8.43;;;;;;;26.91;50.20;99885.72;5299975;27;20075;-89
2021/07/12 21:37:16;;;;;;;11.55;8.55;;;;;;;27.05;49.06;99870.22;5319891;27;20058;-89
2021/07/12 21:39:43;;;;;;;11.00;9.15;;;;;;;26.72;51.97;99872.03;5319695;27;20060;-89
2021/07/12 21:42:10;;;;;;;16.62;8.90;;;;;;;26.83;51.84;99873.84;5299738;27;20048;-89
2021/07/12 21:44:37;;;;;;;13.27;8.95;;;;;;;26.87;50.65;99865.38;5299880;27;20045;-89
2021/07/12 21:47:04;;;;;;;12.37;9.23;;;;;;;26.85;50.86;99864.63;5320138;27;20120;-90
2021/07/12 21:49:32;;;;;;;12.23;9.02;;;;;;;27.01;51.12;99856.16;5319728;27;20130;-89
2021/07/12 21:51:59;;;;;;;11.95;9.13;;;;;;;26.47;51.77;99852.44;5299859;27;20044;-89
2021/07/12 21:54:26;;;;;;;19.42;9.60;;;;;;;26.76;52.18;99859.16;5319352;27;20371;-89
2021/07/12 21:56:52;;;;;;;12.18;9.15;;;;;;;26.64;52.76;99856.47;5299958;27;20057;-89
2021/07/12 21:59:20;;;;;;;10.38;8.73;;;;;;;26.47;52.32;99859.62;5319577;27;20441;-90
2021/07/12 22:01:46;;;;;;;12.95;10.43;;;;;;;26.45;51.00;99858.91;5319471;27;20444;-90
2021/07/12 22:04:14;;;;;;;12.90;9.60;;;;;;;26.48;52.44;99859.53;5319501;27;20411;-89
2021/07/12 22:06:41;;;;;;;9.43;8.20;;;;;;;26.17;51.60;99862.94;5319778;27;20128;-89
2021/07/12 22:09:08;;;;;;;9.90;8.90;;;;;;;25.59;53.68;99862.97;5319366;27;20056;-89
2021/07/12 22:11:36;;;;;;;10.15;8.70;;;;;;;25.45;55.59;99861.31;5299852;27;20777;-89
2021/07/12 22:14:05;;;;;;;10.27;7.75;;;;;;;25.87;51.89;99867.06;5319453;27;20112;-89
2021/07/12 22:16:33;;;;;;;10.50;9.05;;;;;;;26.04;51.43;99871.16;5319582;27;20072;-89
2021/07/12 22:19:01;;;;;;;8.75;7.85;;;;;;;26.24;51.59;99877.66;5299728;27;20468;-89
2021/07/12 22:21:29;;;;;;;10.40;8.77;;;;;;;25.72;52.94;99865.56;5319543;27;20116;-89
2021/07/12 22:23:56;;;;;;;9.00;7.95;;;;;;;26.03;52.44;99864.91;5319269;27;20770;-89
2021/07/12 22:26:24;;;;;;;10.07;8.23;;;;;;;26.07;51.78;99864.66;5319375;27;20113;-90
2021/07/12 22:28:52;;;;;;;14.23;9.85;;;;;;;25.99;51.70;99855.34;5319499;27;20075;-89
2021/07/12 22:31:19;;;;;;;11.27;8.20;;;;;;;25.45;54.47;99861.31;5319502;27;20060;-90
2021/07/12 22:33:46;;;;;;;11.10;8.38;;;;;;;25.27;53.27;99851.97;5300738;27;20452;-89
2021/07/12 22:36:13;;;;;;;11.30;9.98;;;;;;;25.59;53.72;99847.66;5321879;27;20057;-89
2021/07/12 22:38:40;;;;;;;9.93;9.02;;;;;;;25.78;53.61;99847.09;5301997;27;20111;-89
2021/07/12 22:41:07;;;;;;;9.52;8.43;;;;;;;25.36;55.30;99851.25;5302116;27;20068;-89
2021/07/12 22:43:34;;;;;;;10.10;8.90;;;;;;;25.17;55.00;99846.41;5321665;27;20078;-89
2021/07/12 22:46:01;;;;;;;12.37;9.15;;;;;;;25.41;52.94;99843.69;5322488;27;20383;-89
2021/07/12 22:48:28;;;;;;;14.02;8.68;;;;;;;25.63;54.41;99844.75;5301879;27;20077;-89
2021/07/12 22:50:55;;;;;;;11.18;8.57;;;;;;;25.58;53.30;99845.94;5301886;27;20076;-89
2021/07/12 22:53:25;;;;;;;10.48;7.65;;;;;;;25.42;55.14;99839.19;5321534;27;20056;-89
2021/07/12 22:55:52;;;;;;;9.82;8.73;;;;;;;25.41;53.28;99832.06;5321742;27;20083;-89
2021/07/12 22:58:19;;;;;;;11.38;9.23;;;;;;;25.72;53.58;99841.34;5321891;27;20124;-88
